Southend — A8XQ4 — position and weather

sailwx.info

Track history (hours):
 
Tides and Currents Weather Stations Pressure Air Temp Water Temp Dewpoint Dewpoint Depression Visibility Wind Speed Wind Dir Waves Ship Positions

Southend

Last reported at 2018-Jan-12 00:22 UTC. Time now 2018-Jan-23 18:18 UTC.
Position N 34°28' E 140°03'.
Warning: this ship's position is 11 days out of date.

Length 187 m; draft 6.7 m.

Type: Cargo ship. MMSI: 636017652.

Date/timePositionNaut miles runAvg speedWind from/ knotsBaromVisibWave heightAir tempDewpointWater temp
2018-Jan-12 00:22N 34°28' E 140°03'511.9
2018-Jan-11 23:59N 34°25' E 139°59'  
2018-Jan-08 11:21N 30°60' E 122°29'412.4
2018-Jan-08 11:00N 31°01' E 122°24'813.3
2018-Jan-08 10:25N 31°02' E 122°16'512.5
2018-Jan-08 10:00N 31°03' E 122°10'510.6
2018-Jan-08 09:30N 31°04' E 122°04'611.4
2018-Jan-08 09:00N 31°06' E 121°58'510.7
2018-Jan-08 08:30N 31°09' E 121°52'5 9.6
2018-Jan-08 08:00N 31°13' E 121°49'14 2.6
2018-Jan-08 02:25N 31°22' E 121°36'0 0.0
2018-Jan-08 01:19N 31°22' E 121°36'0 0.0
2018-Jan-08 00:55N 31°22' E 121°36'0 0.0
2018-Jan-08 00:19N 31°22' E 121°36'0 0.0
2018-Jan-07 23:55N 31°22' E 121°36'0 0.0
2018-Jan-07 18:37N 31°22' E 121°36'0 0.0
2018-Jan-07 18:13N 31°22' E 121°36'0 0.0
2018-Jan-07 03:55N 31°22' E 121°36'0 0.0
2018-Jan-07 02:43N 31°22' E 121°36'0 0.0
2018-Jan-07 02:25N 31°22' E 121°36'0 0.0
2018-Jan-07 01:55N 31°22' E 121°36'0 0.0
2018-Jan-07 00:01N 31°22' E 121°36'0 0.0
2018-Jan-06 23:07N 31°22' E 121°36'0 0.0
2018-Jan-06 22:37N 31°22' E 121°36'0 0.0
2018-Jan-06 22:25N 31°22' E 121°36'0 0.0
2018-Jan-06 15:31N 31°22' E 121°36'0 0.0
2018-Jan-06 15:24N 31°22' E 121°36'0 0.0
2018-Jan-06 14:55N 31°22' E 121°36'0 0.0
2018-Jan-06 14:25N 31°22' E 121°36'0 0.0
2018-Jan-06 13:52N 31°22' E 121°36'0 0.0
2018-Jan-06 12:07N 31°22' E 121°36'0 0.0
2018-Jan-06 11:43N 31°22' E 121°36'0 0.0
2018-Jan-06 11:25N 31°22' E 121°36'0 0.0
2018-Jan-06 11:01N 31°22' E 121°36'0 0.0
2018-Jan-06 10:01N 31°22' E 121°36'0 0.1
2018-Jan-06 09:55N 31°22' E 121°36'0 0.0
2018-Jan-05 15:24N 31°22' E 121°36'0 0.0
2018-Jan-05 15:00N 31°22' E 121°36'0 0.0
2018-Jan-05 09:36N 31°22' E 121°36'0 0.0
2018-Jan-05 09:24N 31°22' E 121°36'0 0.0
2018-Jan-04 06:01N 31°22' E 121°36'0 0.0
2018-Jan-04 05:30N 31°22' E 121°36'0 0.0
2018-Jan-04 04:48N 31°22' E 121°36'0 0.0
2018-Jan-03 14:48N 31°22' E 121°36'0 0.0
2018-Jan-03 14:25N 31°22' E 121°36'0 0.0
2018-Jan-03 13:45N 31°22' E 121°36'0 0.0
2018-Jan-03 10:30N 31°22' E 121°36'0 0.0
2018-Jan-02 18:54N 31°22' E 121°36'0 0.0
2018-Jan-02 18:30N 31°22' E 121°36'0 0.0
2018-Jan-02 17:36N 31°22' E 121°36'0 0.0
2018-Jan-02 17:27N 31°22' E 121°36'0 0.0
2018-Jan-02 16:54N 31°22' E 121°36'0 0.0
2018-Jan-02 16:27N 31°22' E 121°36'0 0.0
2018-Jan-02 15:54N 31°22' E 121°36'0 0.0
2018-Jan-02 15:06N 31°22' E 121°36'0 0.0
2018-Jan-02 15:00N 31°22' E 121°36'0 0.0
2018-Jan-02 14:30N 31°22' E 121°36'0 0.0
2018-Jan-02 09:42N 31°22' E 121°36'0 0.0
2018-Jan-02 09:18N 31°22' E 121°36'0 0.0
2018-Jan-02 05:21N 31°22' E 121°36'0 0.1
2018-Jan-02 04:30N 31°22' E 121°36'3 5.0
2018-Jan-02 04:00N 31°21' E 121°39'7 9.6
2018-Jan-02 03:17N 31°18' E 121°46'411.8
2018-Jan-02 02:56N 31°17' E 121°50'4 9.6
2018-Jan-02 02:30N 31°16' E 121°55'610.0
2018-Jan-02 01:55N 31°15' E 122°02'510.6
2018-Jan-02 01:27N 31°13' E 122°07'  
Track history (hours):
 
Tides and Currents Weather Stations Pressure Air Temp Water Temp Dewpoint Dewpoint Depression Visibility Wind Speed Wind Dir Waves Ship Positions

Southend

Last reported at 2018-Jan-12 00:22 UTC. Time now 2018-Jan-23 18:18 UTC.
Position N 34°28' E 140°03'.
Warning: this ship's position is 11 days out of date.

Length 187 m; draft 6.7 m.

Type: Cargo ship. MMSI: 636017652.

Date/timePositionNaut miles runAvg speedWind from/ knotsBaromVisibWave heightAir tempDewpointWater temp
2018-Jan-12 00:22N 34°28' E 140°03'511.9
2018-Jan-11 23:59N 34°25' E 139°59'  
2018-Jan-08 11:21N 30°60' E 122°29'412.4
2018-Jan-08 11:00N 31°01' E 122°24'813.3
2018-Jan-08 10:25N 31°02' E 122°16'512.5
2018-Jan-08 10:00N 31°03' E 122°10'510.6
2018-Jan-08 09:30N 31°04' E 122°04'611.4
2018-Jan-08 09:00N 31°06' E 121°58'510.7
2018-Jan-08 08:30N 31°09' E 121°52'5 9.6
2018-Jan-08 08:00N 31°13' E 121°49'14 2.6
2018-Jan-08 02:25N 31°22' E 121°36'0 0.0
2018-Jan-08 01:19N 31°22' E 121°36'0 0.0
2018-Jan-08 00:55N 31°22' E 121°36'0 0.0
2018-Jan-08 00:19N 31°22' E 121°36'0 0.0
2018-Jan-07 23:55N 31°22' E 121°36'0 0.0
2018-Jan-07 18:37N 31°22' E 121°36'0 0.0
2018-Jan-07 18:13N 31°22' E 121°36'0 0.0
2018-Jan-07 03:55N 31°22' E 121°36'0 0.0
2018-Jan-07 02:43N 31°22' E 121°36'0 0.0
2018-Jan-07 02:25N 31°22' E 121°36'0 0.0
2018-Jan-07 01:55N 31°22' E 121°36'0 0.0
2018-Jan-07 00:01N 31°22' E 121°36'0 0.0
2018-Jan-06 23:07N 31°22' E 121°36'0 0.0
2018-Jan-06 22:37N 31°22' E 121°36'0 0.0
2018-Jan-06 22:25N 31°22' E 121°36'0 0.0
2018-Jan-06 15:31N 31°22' E 121°36'0 0.0
2018-Jan-06 15:24N 31°22' E 121°36'0 0.0
2018-Jan-06 14:55N 31°22' E 121°36'0 0.0
2018-Jan-06 14:25N 31°22' E 121°36'0 0.0
2018-Jan-06 13:52N 31°22' E 121°36'0 0.0
2018-Jan-06 12:07N 31°22' E 121°36'0 0.0
2018-Jan-06 11:43N 31°22' E 121°36'0 0.0
2018-Jan-06 11:25N 31°22' E 121°36'0 0.0
2018-Jan-06 11:01N 31°22' E 121°36'0 0.0
2018-Jan-06 10:01N 31°22' E 121°36'0 0.1
2018-Jan-06 09:55N 31°22' E 121°36'0 0.0
2018-Jan-05 15:24N 31°22' E 121°36'0 0.0
2018-Jan-05 15:00N 31°22' E 121°36'0 0.0
2018-Jan-05 09:36N 31°22' E 121°36'0 0.0
2018-Jan-05 09:24N 31°22' E 121°36'0 0.0
2018-Jan-04 06:01N 31°22' E 121°36'0 0.0
2018-Jan-04 05:30N 31°22' E 121°36'0 0.0
2018-Jan-04 04:48N 31°22' E 121°36'0 0.0
2018-Jan-03 14:48N 31°22' E 121°36'0 0.0
2018-Jan-03 14:25N 31°22' E 121°36'0 0.0
2018-Jan-03 13:45N 31°22' E 121°36'0 0.0
2018-Jan-03 10:30N 31°22' E 121°36'0 0.0
2018-Jan-02 18:54N 31°22' E 121°36'0 0.0
2018-Jan-02 18:30N 31°22' E 121°36'0 0.0
2018-Jan-02 17:36N 31°22' E 121°36'0 0.0
2018-Jan-02 17:27N 31°22' E 121°36'0 0.0
2018-Jan-02 16:54N 31°22' E 121°36'0 0.0
2018-Jan-02 16:27N 31°22' E 121°36'0 0.0
2018-Jan-02 15:54N 31°22' E 121°36'0 0.0
2018-Jan-02 15:06N 31°22' E 121°36'0 0.0
2018-Jan-02 15:00N 31°22' E 121°36'0 0.0
2018-Jan-02 14:30N 31°22' E 121°36'0 0.0
2018-Jan-02 09:42N 31°22' E 121°36'0 0.0
2018-Jan-02 09:18N 31°22' E 121°36'0 0.0
2018-Jan-02 05:21N 31°22' E 121°36'0 0.1
2018-Jan-02 04:30N 31°22' E 121°36'3 5.0
2018-Jan-02 04:00N 31°21' E 121°39'7 9.6
2018-Jan-02 03:17N 31°18' E 121°46'411.8
2018-Jan-02 02:56N 31°17' E 121°50'4 9.6
2018-Jan-02 02:30N 31°16' E 121°55'610.0
2018-Jan-02 01:55N 31°15' E 122°02'510.6
2018-Jan-02 01:27N 31°13' E 122°07'  

Dump ship's entire track history